EDLN/MGL METAR and TAF weather

Enter ICAO airport designator
Station Type Date Time Source
EDLN METAR 2020/09/18 08:20 UTC NOAA

EDLN 180820Z 07005KT 040V110 CAVOK 15/07 Q1025


Station Type Date Time Source
EDLN Decoded METAR 2020/09/18 08:20 UTC NOAA

Monchengladbach, Germany (EDLN) 51-13-49N 006-30-16E
Sep 18, 2020 - 04:20 AM EDT / 2020.09.18 0820 UTC
Wind: from the ENE (070 degrees) at 6 MPH (5 KT) (direction variable):0
Visibility: greater than 7 mile(s):0
Temperature: 59 F (15 C)
Dew Point: 44 F (7 C)
Relative Humidity: 58%
Pressure (altimeter): 30.27 in. Hg (1025 hPa)
ob: EDLN 180820Z 07005KT 040V110 CAVOK 15/07 Q1025
cycle: 8

Station Type Date Time Source
EDLN TAF 2010/02/22 14:20 UTC NOAA

METAR EDLN 221420Z 18010G20KT 090V240 9999 SCT030 BKN045 11/06 Q0986
RMK ATIS R=

Example: see airport list